M I D A S
Marine Information and Data Acquisition System
Tripno 1448 of the Zeeleeuw from 2008-03-31 08:09:42 to 2008-03-31 13:50:21
Back to CruiseResearch ActivitiesStationsMapUnderway DataData graphs

EquipmentUnitsComments
TimeDGPSUTC
LatitudeDGPSDM.mWGS84
LongitudeDGPSDM.mWGS84
SpeedMeteo Stationm/sRelative wind speed
DirectionMeteo StationdegRelative wind direction
TemperatureMeteo Stationdeg CelciusAir temperature
PressureMeteo StationPaAtmospheric pressure
HumidityMeteo Station%Relative humidity
Missing or incorrect values are displayed as -999
Metereological data collected by the RV Zeeleeuw from 2008-03-31 08:05:06 to 2008-03-31 14:01:52
Time Latitude Longitude Speed Direction Temperature Pressure Humidity
2008-03-31 08:06 51°13.674 2°55.928 -999 -999 -999 -999 -999
2008-03-31 08:07 51°13.698 2°55.825 -999 -999 -999 -999 -999
2008-03-31 08:08 51°13.707 2°55.748 -999 -999 -999 -999 -999
2008-03-31 08:09 51°13.714 2°55.722 -999 -999 -999 -999 -999
2008-03-31 08:10 51°13.727 2°55.728 -999 -999 -999 -999 -999
2008-03-31 08:11 51°13.72 2°55.719 -999 -999 -999 -999 -999
2008-03-31 08:12 51°13.759 2°55.691 0.9 81 8.2 101250 90
2008-03-31 08:13 51°13.835 2°55.632 0.1 78 8.3 101260 91
2008-03-31 08:14 51°13.913 2°55.576 1.1 75 8.5 101260 91
2008-03-31 08:15 51°13.982 2°55.527 1.8 75 8.6 101260 91
2008-03-31 08:16 51°14.049 2°55.476 0.7 79 8.7 101260 90
2008-03-31 08:17 51°14.117 2°55.422 1.4 74 8.7 101260 89
2008-03-31 08:18 51°14.194 2°55.347 1.6 287 8.8 101270 89
2008-03-31 08:19 51°14.264 2°55.247 1.7 79 9 101270 89
2008-03-31 08:20 51°14.334 2°55.114 1.5 282 9 101270 88
2008-03-31 08:21 51°14.471 2°54.986 2.9 286 9 101270 88
2008-03-31 08:22 51°14.673 2°55.001 3 285 8.8 101270 85
2008-03-31 08:23 51°14.881 2°54.968 3.3 283 8.7 101270 86
2008-03-31 08:24 51°15.041 2°54.759 6.4 282 8.6 101270 86
2008-03-31 08:25 51°15.139 2°54.469 7 283 8.6 101270 86
2008-03-31 08:26 51°15.218 2°54.17 7.4 279 8.6 101260 86
2008-03-31 08:27 51°15.288 2°53.851 7.5 285 8.5 101270 86
2008-03-31 08:28 51°15.337 2°53.539 7 284 8.5 101260 86
2008-03-31 08:29 51°15.36 2°53.211 8 283 8.4 101250 86
2008-03-31 08:30 51°15.385 2°52.892 8.3 278 8.4 101260 87
2008-03-31 08:31 51°15.411 2°52.568 7 280 8.3 101260 87
2008-03-31 08:32 51°15.431 2°52.243 6.9 285 8.3 101260 87
2008-03-31 08:33 51°15.434 2°51.918 9 281 8.3 101260 88
2008-03-31 08:34 51°15.446 2°51.592 8 281 8.2 101260 88
2008-03-31 08:35 51°15.461 2°51.267 8.6 282 8.2 101260 88
2008-03-31 08:36 51°15.482 2°50.943 7.2 280 8.2 101260 88
2008-03-31 08:37 51°15.508 2°50.619 8.4 280 8.2 101260 89
2008-03-31 08:38 51°15.532 2°50.288 8.1 282 8.2 101270 89
2008-03-31 08:39 51°15.56 2°49.962 7.8 279 8.2 101270 89
2008-03-31 08:40 51°15.584 2°49.641 8.6 279 8.2 101270 89
2008-03-31 08:41 51°15.609 2°49.31 9 284 8.2 101270 90
2008-03-31 08:42 51°15.643 2°48.994 7.5 282 8.2 101270 90
2008-03-31 08:43 51°15.754 2°48.706 5.9 281 8.2 101280 90
2008-03-31 08:44 51°15.867 2°48.429 6.5 286 8.2 101290 90
2008-03-31 08:45 51°15.943 2°48.116 7.7 279 8.2 101280 90
2008-03-31 08:46 51°15.988 2°47.8 6.2 286 8.2 101280 90
2008-03-31 08:47 51°16.027 2°47.476 6.6 283 8.2 101280 90
2008-03-31 08:48 51°16.067 2°47.147 8.4 284 8.1 101290 90
2008-03-31 08:49 51°16.103 2°46.829 6.7 281 8.1 101280 91
2008-03-31 08:50 51°16.139 2°46.506 6.3 283 8.1 101290 91
2008-03-31 08:51 51°16.179 2°46.184 6.1 285 8.1 101290 91
2008-03-31 08:52 51°16.229 2°45.858 5.7 278 8.1 101290 91
2008-03-31 08:53 51°16.296 2°45.548 5.4 280 8.1 101300 91
2008-03-31 08:54 51°16.382 2°45.234 5.3 286 8.1 101300 91
2008-03-31 08:55 51°16.486 2°44.939 5.3 282 8.1 101300 91
2008-03-31 08:56 51°16.591 2°44.652 6.2 278 8.1 101300 91
2008-03-31 08:57 51°16.709 2°44.362 4.7 280 8.1 101300 91
2008-03-31 08:58 51°16.827 2°44.086 5.9 281 8.1 101310 91
2008-03-31 08:59 51°16.943 2°43.802 5.7 280 8.1 101310 91
2008-03-31 09:00 51°17.061 2°43.52 4.8 280 8.2 101310 91
2008-03-31 09:01 51°17.18 2°43.233 5.6 281 8.2 101310 91
2008-03-31 09:02 51°17.296 2°42.958 5.7 284 8.1 101310 91
2008-03-31 09:03 51°17.413 2°42.671 5.6 283 8.1 101310 91
2008-03-31 09:04 51°17.534 2°42.391 5.1 284 8.1 101310 91
2008-03-31 09:05 51°17.654 2°42.117 4.7 280 8.2 101310 91
2008-03-31 09:06 51°17.775 2°41.832 5.1 286 8.2 101320 91
2008-03-31 09:07 51°17.892 2°41.555 5 281 8.2 101310 91
2008-03-31 09:08 51°18.011 2°41.274 3.9 280 8.2 101310 91
2008-03-31 09:09 51°18.13 2°40.994 5 285 8.2 101310 91
2008-03-31 09:10 51°18.25 2°40.711 3.6 280 8.2 101310 91
2008-03-31 09:11 51°18.367 2°40.441 4.2 284 8.2 101320 91
2008-03-31 09:12 51°18.489 2°40.162 4.1 279 8.2 101320 91
2008-03-31 09:13 51°18.605 2°39.89 4.2 278 8.2 101320 91
2008-03-31 09:14 51°18.723 2°39.614 3.9 281 8.2 101320 91
2008-03-31 09:15 51°18.844 2°39.332 3.8 282 8.3 101320 91
2008-03-31 09:16 51°18.96 2°39.058 3.5 281 8.3 101320 91
2008-03-31 09:17 51°19.077 2°38.78 3.5 280 8.3 101320 91
2008-03-31 09:18 51°19.195 2°38.502 3.5 286 8.3 101330 91
2008-03-31 09:19 51°19.318 2°38.224 2.7 285 8.3 101320 91
2008-03-31 09:20 51°19.466 2°37.989 2.6 279 8.3 101320 91
2008-03-31 09:21 51°19.649 2°37.807 2.3 278 8.3 101330 90
2008-03-31 09:22 51°19.845 2°37.665 2.5 281 8.2 101330 90
2008-03-31 09:23 51°20.019 2°37.484 1.7 281 8.2 101330 90
2008-03-31 09:24 51°20.137 2°37.308 5 285 8.2 101330 91
2008-03-31 09:25 51°20.133 2°37.196 5.5 280 8.4 101330 91
2008-03-31 09:26 51°20.106 2°37.087 6.1 284 8.4 101330 91
2008-03-31 09:27 51°20.083 2°36.964 5.4 280 8.4 101330 91
2008-03-31 09:28 51°20.077 2°36.887 4.7 280 8.4 101330 91
2008-03-31 09:29 51°20.082 2°36.863 3.7 81 8.5 101340 90
2008-03-31 09:30 51°20.087 2°36.872 3.8 77 8.4 101340 90
2008-03-31 09:31 51°20.089 2°36.884 2.1 81 8.3 101340 90
2008-03-31 09:32 51°20.089 2°36.897 1.8 78 8.6 101340 92
2008-03-31 09:33 51°20.09 2°36.91 3.4 82 8.7 101340 91
2008-03-31 09:34 51°20.093 2°36.92 3.3 75 8.6 101340 89
2008-03-31 09:35 51°20.098 2°36.929 3.2 74 8.5 101340 89
2008-03-31 09:36 51°20.104 2°36.937 3.6 80 8.4 101340 89
2008-03-31 09:37 51°20.113 2°36.943 3.2 74 8.3 101350 90
2008-03-31 09:38 51°20.131 2°36.942 1.4 76 8.3 101340 90
2008-03-31 09:39 51°20.154 2°36.893 3.4 279 8.4 101350 91
2008-03-31 09:40 51°20.146 2°36.836 4.7 281 8.5 101350 92
2008-03-31 09:41 51°20.115 2°36.809 5.4 283 8.5 101350 92
2008-03-31 09:42 51°20.083 2°36.818 4.3 285 8.5 101350 91
2008-03-31 09:43 51°20.062 2°36.836 4.6 283 8.5 101350 91
2008-03-31 09:44 51°20.053 2°36.854 4.4 280 8.5 101350 91
2008-03-31 09:45 51°20.057 2°36.863 3.6 279 8.5 101360 91
2008-03-31 09:46 51°20.065 2°36.867 3.7 347 8.4 101360 91
2008-03-31 09:47 51°20.073 2°36.874 3.9 355 8.3 101360 90
2008-03-31 09:48 51°20.081 2°36.884 4.4 2 8.3 101360 91
2008-03-31 09:49 51°20.091 2°36.902 3.9 -999 8.2 101370 91
2008-03-31 09:50 51°20.099 2°36.923 3.8 358 8.2 101370 92
2008-03-31 09:51 51°20.106 2°36.94 3.5 358 8.1 101370 92
2008-03-31 09:52 51°20.114 2°36.954 3.3 3 8.1 101370 93
2008-03-31 09:53 51°20.122 2°36.965 3 2 8.1 101370 93
2008-03-31 09:54 51°20.129 2°36.976 3.6 -999 8.1 101370 93
2008-03-31 09:55 51°20.136 2°36.986 3.6 360 8.1 101370 93
2008-03-31 09:56 51°20.143 2°36.994 3.1 358 8.1 101370 93
2008-03-31 09:57 51°20.151 2°37.001 2.9 2 8.1 101370 93
2008-03-31 09:58 51°20.158 2°37.008 3.1 359 8.1 101370 93
2008-03-31 09:59 51°20.165 2°37.015 3 359 8.1 101370 94
2008-03-31 10:00 51°20.173 2°37.021 3 357 8.1 101380 93
2008-03-31 10:01 51°20.179 2°37.027 3.2 354 8.2 101380 94
2008-03-31 10:02 51°20.186 2°37.031 3.1 354 8.2 101380 94
2008-03-31 10:03 51°20.193 2°37.034 3.2 354 8.2 101380 94
2008-03-31 10:04 51°20.201 2°37.038 3.4 354 8.1 101380 94
2008-03-31 10:05 51°20.209 2°37.04 3.6 354 8.2 101380 94
2008-03-31 10:06 51°20.216 2°37.041 3.1 357 8.2 101390 94
2008-03-31 10:07 51°20.224 2°37.041 2.9 1 8.2 101380 94
2008-03-31 10:08 51°20.232 2°37.042 3.2 6 8.2 101390 94
2008-03-31 10:09 51°20.24 2°37.041 3.2 16 8.2 101390 94
2008-03-31 10:10 51°20.248 2°37.041 3 16 8.2 101390 94
2008-03-31 10:11 51°20.255 2°37.04 3.1 18 8.3 101390 94
2008-03-31 10:12 51°20.263 2°37.038 2.9 21 8.4 101390 94
2008-03-31 10:13 51°20.27 2°37.037 3.3 24 8.4 101400 94
2008-03-31 10:14 51°20.277 2°37.035 3.3 25 8.4 101400 94
2008-03-31 10:15 51°20.285 2°37.035 3.6 26 8.4 101400 94
2008-03-31 10:16 51°20.292 2°37.034 3.6 25 8.4 101400 93
2008-03-31 10:17 51°20.299 2°37.033 3.5 23 8.4 101410 93
2008-03-31 10:18 51°20.306 2°37.032 3.1 22 8.4 101410 93
2008-03-31 10:19 51°20.312 2°37.031 3.1 22 8.5 101410 93
2008-03-31 10:20 51°20.32 2°37.03 3.1 18 8.5 101410 93
2008-03-31 10:21 51°20.327 2°37.029 3.1 15 8.5 101420 93
2008-03-31 10:22 51°20.329 2°37.09 5 335 8.5 101410 93
2008-03-31 10:23 51°20.276 2°37.122 4.6 280 8.5 101410 93
2008-03-31 10:24 51°20.226 2°37.098 4.2 285 8.6 101420 94
2008-03-31 10:25 51°20.195 2°37.066 3.7 284 8.7 101420 94
2008-03-31 10:26 51°20.182 2°37.045 1.9 278 8.8 101420 93
2008-03-31 10:27 51°20.183 2°37.04 2.8 284 8.9 101430 93
2008-03-31 10:28 51°20.186 2°37.034 2.6 82 8.9 101430 93
2008-03-31 10:29 51°20.189 2°37.028 2.6 80 8.9 101430 92
2008-03-31 10:30 51°20.193 2°37.022 2.4 74 8.8 101430 92
2008-03-31 10:31 51°20.198 2°37.015 2.5 75 8.8 101430 92
2008-03-31 10:32 51°20.204 2°37.008 2.5 79 8.7 101430 91
2008-03-31 10:33 51°20.21 2°37.002 2.3 74 8.6 101430 91
2008-03-31 10:34 51°20.215 2°36.995 1.5 80 8.7 101430 92
2008-03-31 10:35 51°20.221 2°36.988 1.6 79 8.8 101440 93
2008-03-31 10:36 51°20.228 2°36.983 1.5 74 9 101430 93
2008-03-31 10:37 51°20.234 2°36.976 1.3 76 9.2 101430 93
2008-03-31 10:38 51°20.24 2°36.97 1.9 79 9.4 101440 92
2008-03-31 10:39 51°20.246 2°36.963 1.5 74 9.3 101440 90
2008-03-31 10:40 51°20.252 2°36.958 1.4 76 9.5 101440 91
2008-03-31 10:41 51°20.258 2°36.951 2 73 9.6 101440 90
2008-03-31 10:42 51°20.265 2°36.945 2.2 75 9.5 101440 88
2008-03-31 10:43 51°20.271 2°36.939 2 81 9.3 101440 87
2008-03-31 10:44 51°20.277 2°36.933 1.9 78 9.2 101450 87
2008-03-31 10:45 51°20.282 2°36.926 1.9 79 9.1 101450 87
2008-03-31 10:46 51°20.287 2°36.92 1.9 79 9.1 101440 88
2008-03-31 10:47 51°20.292 2°36.912 0.9 77 9.2 101450 89
2008-03-31 10:48 51°20.295 2°36.863 3.8 284 9.4 101450 89
2008-03-31 10:49 51°20.263 2°36.819 4.1 280 9.5 101450 89
2008-03-31 10:50 51°20.226 2°36.803 3 279 9.5 101450 88
2008-03-31 10:51 51°20.2 2°36.797 3.1 282 9.6 101450 87
2008-03-31 10:52 51°20.18 2°36.795 2.9 286 9.6 101450 87
2008-03-31 10:53 51°20.166 2°36.793 2.8 278 9.6 101450 87
2008-03-31 10:54 51°20.155 2°36.789 2.6 25 9.7 101450 87
2008-03-31 10:55 51°20.146 2°36.786 3.1 279 9.7 101460 86
2008-03-31 10:56 51°20.139 2°36.782 2.5 281 9.7 101450 86
2008-03-31 10:57 51°20.133 2°36.776 2.5 245 9.7 101460 86
2008-03-31 10:58 51°20.128 2°36.77 2.8 282 9.8 101460 86
2008-03-31 10:59 51°20.125 2°36.763 2.6 254 9.9 101460 86
2008-03-31 11:00 51°20.124 2°36.756 2.1 260 9.9 101470 86
2008-03-31 11:01 51°20.123 2°36.748 1.8 286 9.8 101460 86
2008-03-31 11:02 51°20.123 2°36.741 2.4 281 9.8 101470 85
2008-03-31 11:03 51°20.123 2°36.733 2.2 266 9.6 101470 85
2008-03-31 11:04 51°20.124 2°36.727 2.1 285 9.6 101470 85
2008-03-31 11:05 51°20.126 2°36.72 2.6 79 9.6 101470 86
2008-03-31 11:06 51°20.128 2°36.712 2.3 74 9.5 101470 86
2008-03-31 11:07 51°20.13 2°36.705 2.7 76 9.5 101470 86
2008-03-31 11:08 51°20.133 2°36.698 2.3 76 9.4 101470 86
2008-03-31 11:09 51°20.136 2°36.691 2.6 81 9.4 101470 86
2008-03-31 11:10 51°20.139 2°36.684 2.2 20 9.3 101470 86
2008-03-31 11:11 51°20.142 2°36.677 2.5 79 9.2 101470 87
2008-03-31 11:12 51°20.145 2°36.67 1.6 79 9.2 101480 88
2008-03-31 11:13 51°20.148 2°36.663 1.7 78 9.3 101470 89
2008-03-31 11:14 51°20.15 2°36.657 2.2 77 9.4 101470 88
2008-03-31 11:15 51°20.153 2°36.652 2.2 39 9.3 101480 88
2008-03-31 11:16 51°20.155 2°36.646 2.1 35 9.3 101480 88
2008-03-31 11:17 51°20.156 2°36.641 2.3 28 9.2 101480 89
2008-03-31 11:18 51°20.176 2°36.633 2.2 13 9.2 101480 89
2008-03-31 11:19 51°20.226 2°36.616 2.4 8 9.1 101480 89
2008-03-31 11:20 51°20.265 2°36.603 2.4 13 9 101480 89
2008-03-31 11:21 51°20.294 2°36.591 2.2 18 9 101480 90
2008-03-31 11:22 51°20.315 2°36.577 2 25 9 101480 91
2008-03-31 11:23 51°20.333 2°36.562 1.9 26 9.1 101490 91
2008-03-31 11:24 51°20.363 2°36.556 2.8 350 9.1 101490 91
2008-03-31 11:25 51°20.385 2°36.616 3.7 285 9.1 101490 91
2008-03-31 11:26 51°20.349 2°36.672 3.1 26 9.2 101480 92
2008-03-31 11:27 51°20.245 2°36.706 5.4 278 9.3 101490 92
2008-03-31 11:28 51°20.129 2°36.777 4 278 9.4 101480 92
2008-03-31 11:29 51°20.091 2°36.825 2.5 321 9.5 101490 91
2008-03-31 11:30 51°20.079 2°36.851 2.2 286 9.6 101490 92
2008-03-31 11:31 51°20.072 2°36.856 1.7 281 9.8 101490 91
2008-03-31 11:32 51°20.068 2°36.857 1.9 285 9.9 101490 91
2008-03-31 11:33 51°20.063 2°36.856 2 281 10 101500 91
2008-03-31 11:34 51°20.055 2°36.858 3.2 285 10.1 101500 90
2008-03-31 11:35 51°20.043 2°36.902 3.4 281 10.1 101500 90
2008-03-31 11:36 51°20.071 2°36.957 4.1 348 10 101500 88
2008-03-31 11:37 51°20.11 2°36.965 2.6 2 9.7 101490 86
2008-03-31 11:38 51°20.127 2°36.954 2.4 22 9.5 101500 88
2008-03-31 11:39 51°20.127 2°36.946 2.3 32 9.4 101500 89
2008-03-31 11:40 51°20.123 2°36.941 2.3 33 9.4 101510 89
2008-03-31 11:41 51°20.119 2°36.939 2.2 32 9.4 101510 89
2008-03-31 11:42 51°20.114 2°36.932 2.2 38 9.5 101510 90
2008-03-31 11:43 51°20.109 2°36.926 2.1 30 9.5 101520 90
2008-03-31 11:44 51°20.105 2°36.92 2.1 29 9.6 101520 90
2008-03-31 11:45 51°20.1 2°36.915 1.8 33 9.6 101520 90
2008-03-31 11:46 51°20.093 2°36.908 1.7 30 9.6 101520 90
2008-03-31 11:47 51°20.089 2°36.901 1.6 23 9.7 101520 90
2008-03-31 11:48 51°20.087 2°36.892 1.8 27 9.7 101520 90
2008-03-31 11:49 51°20.085 2°36.882 1.6 28 9.8 101520 89
2008-03-31 11:50 51°20.083 2°36.873 1.1 32 9.8 101520 89
2008-03-31 11:51 51°20.091 2°36.863 0.8 32 9.8 101520 89
2008-03-31 11:52 51°20.111 2°36.848 1.3 11 9.9 101530 89
2008-03-31 11:53 51°20.134 2°36.851 1.4 2 9.8 101530 88
2008-03-31 11:54 51°20.15 2°36.877 1.9 279 9.7 101520 88
2008-03-31 11:55 51°20.15 2°36.911 2.2 281 9.7 101530 89
2008-03-31 11:56 51°20.144 2°36.93 1.8 287 9.7 101530 89
2008-03-31 11:57 51°20.139 2°36.936 1.6 286 9.8 101530 90
2008-03-31 11:58 51°20.136 2°36.936 1.3 285 10 101530 90
2008-03-31 11:59 51°20.133 2°36.932 1.3 278 10.1 101530 90
2008-03-31 12:00 51°20.13 2°36.928 1.3 282 10.3 101540 90
2008-03-31 12:01 51°20.127 2°36.924 1.2 284 10.5 101540 90
2008-03-31 12:02 51°20.121 2°36.92 1.4 285 10.7 101540 90
2008-03-31 12:03 51°20.116 2°36.915 1.4 282 10.8 101540 88
2008-03-31 12:04 51°20.11 2°36.91 1 281 11 101540 88
2008-03-31 12:05 51°20.104 2°36.904 1.4 279 11.2 101540 87
2008-03-31 12:06 51°20.097 2°36.897 1.4 281 11.3 101540 87
2008-03-31 12:07 51°20.092 2°36.889 1.2 283 11.5 101540 86
2008-03-31 12:08 51°20.087 2°36.879 1.3 278 11.6 101540 85
2008-03-31 12:09 51°20.082 2°36.87 1.1 282 11.8 101540 84
2008-03-31 12:10 51°20.079 2°36.86 1.4 279 11.9 101540 84
2008-03-31 12:11 51°20.082 2°36.85 2.1 276 12 101540 83
2008-03-31 12:12 51°20.086 2°36.84 1.9 279 12.1 101550 81
2008-03-31 12:13 51°20.088 2°36.829 2 280 12 101550 80
2008-03-31 12:14 51°20.09 2°36.817 1.8 286 12 101550 80
2008-03-31 12:15 51°20.088 2°36.806 2.6 283 12 101550 79
2008-03-31 12:16 51°20.058 2°36.819 3.7 282 11.8 101550 77
2008-03-31 12:17 51°20.007 2°36.858 4.6 279 11.5 101550 76
2008-03-31 12:18 51°19.917 2°36.942 6.5 286 11.1 101550 77
2008-03-31 12:19 51°19.808 2°37.06 7.3 284 10.8 101550 78
2008-03-31 12:20 51°19.691 2°37.184 8.4 279 10.6 101550 80
2008-03-31 12:21 51°19.561 2°37.317 9 282 10.5 101550 80
2008-03-31 12:22 51°19.425 2°37.467 9 281 10.5 101550 80
2008-03-31 12:23 51°19.291 2°37.615 8.6 278 10.5 101550 79
2008-03-31 12:24 51°19.151 2°37.769 8.2 281 10.5 101560 80
2008-03-31 12:25 51°19.013 2°37.918 7.4 282 10.5 101560 80
2008-03-31 12:26 51°18.873 2°38.068 7.2 282 10.5 101560 81
2008-03-31 12:27 51°18.734 2°38.22 7.5 283 10.5 101550 81
2008-03-31 12:28 51°18.595 2°38.373 9 285 10.3 101550 80
2008-03-31 12:29 51°18.457 2°38.525 8.8 280 10.2 101560 82
2008-03-31 12:30 51°18.318 2°38.677 8.8 282 10 101560 83
2008-03-31 12:31 51°18.182 2°38.832 9 283 9.8 101560 84
2008-03-31 12:32 51°18.045 2°38.987 7.8 284 9.7 101560 85
2008-03-31 12:33 51°17.896 2°39.106 8.3 278 9.6 101560 86
2008-03-31 12:34 51°17.733 2°39.184 9.6 279 9.8 101560 87
2008-03-31 12:35 51°17.572 2°39.259 9.3 283 9.9 101560 86
2008-03-31 12:36 51°17.414 2°39.337 8.1 285 9.9 101560 85
2008-03-31 12:37 51°17.258 2°39.413 8.8 282 10 101560 85
2008-03-31 12:38 51°17.102 2°39.491 9.8 280 10 101560 84
2008-03-31 12:39 51°16.943 2°39.565 10.1 282 10.1 101560 84
2008-03-31 12:40 51°16.786 2°39.647 8.7 280 10.1 101560 83
2008-03-31 12:41 51°16.627 2°39.731 8.7 280 10.1 101560 83
2008-03-31 12:42 51°16.474 2°39.812 8.5 283 10.1 101570 83
2008-03-31 12:43 51°16.326 2°39.889 8.6 284 10.1 101570 83
2008-03-31 12:44 51°16.178 2°39.968 8.6 284 10.1 101560 83
2008-03-31 12:45 51°16.029 2°40.045 9.4 284 10.1 101570 82
2008-03-31 12:46 51°15.88 2°40.123 10 278 10.2 101570 81
2008-03-31 12:47 51°15.731 2°40.2 10.2 284 10.2 101570 80
2008-03-31 12:48 51°15.584 2°40.28 8.9 279 10.2 101570 80
2008-03-31 12:49 51°15.436 2°40.358 8.5 279 10.2 101570 81
2008-03-31 12:50 51°15.297 2°40.456 8.6 281 10.1 101570 81
2008-03-31 12:51 51°15.168 2°40.579 9.8 280 10.1 101570 81
2008-03-31 12:52 51°15.041 2°40.706 9.4 283 10 101570 82
2008-03-31 12:53 51°14.929 2°40.863 10.6 280 9.9 101570 82
2008-03-31 12:54 51°14.816 2°41.019 9.2 346 9.9 101570 82
2008-03-31 12:55 51°14.713 2°41.186 10.4 352 9.9 101560 82
2008-03-31 12:56 51°14.634 2°41.381 9.3 356 9.9 101570 82
2008-03-31 12:57 51°14.588 2°41.6 9 359 9.9 101570 82
2008-03-31 12:58 51°14.538 2°41.82 8.4 358 10 101570 81
2008-03-31 12:59 51°14.52 2°42.046 7 7 10.1 101570 80
2008-03-31 13:00 51°14.533 2°42.275 6 5 10.1 101580 79
2008-03-31 13:01 51°14.544 2°42.505 6 6 10.1 101580 79
2008-03-31 13:02 51°14.553 2°42.736 6 6 10.1 101580 78
2008-03-31 13:03 51°14.561 2°42.967 6 5 10.1 101580 78
2008-03-31 13:04 51°14.567 2°43.198 6.4 360 10.1 101580 79
2008-03-31 13:05 51°14.573 2°43.427 6.2 2 10 101590 80
2008-03-31 13:06 51°14.578 2°43.658 6 6 9.9 101590 80
2008-03-31 13:07 51°14.585 2°43.887 5.1 5 9.9 101590 80
2008-03-31 13:08 51°14.591 2°44.117 6.1 4 9.9 101590 80
2008-03-31 13:09 51°14.597 2°44.347 6.3 5 9.9 101590 79
2008-03-31 13:10 51°14.604 2°44.577 5.9 8 10 101590 79
2008-03-31 13:11 51°14.609 2°44.806 5.2 4 10 101590 78
2008-03-31 13:12 51°14.615 2°45.035 5.4 3 10 101590 78
2008-03-31 13:13 51°14.62 2°45.265 5.2 1 10 101590 79
2008-03-31 13:14 51°14.625 2°45.494 5.5 4 10 101590 79
2008-03-31 13:15 51°14.631 2°45.724 5.8 4 10 101590 80
2008-03-31 13:16 51°14.636 2°45.954 5.4 6 10 101590 79
2008-03-31 13:17 51°14.641 2°46.185 5 5 10 101590 79
2008-03-31 13:18 51°14.646 2°46.417 5.4 5 10 101590 79
2008-03-31 13:19 51°14.65 2°46.647 5.5 6 10 101590 79
2008-03-31 13:20 51°14.656 2°46.889 5.6 5 10 101590 79
2008-03-31 13:21 51°14.663 2°47.139 5.8 3 10 101590 79
2008-03-31 13:22 51°14.669 2°47.39 6.2 4 10 101590 79
2008-03-31 13:23 51°14.673 2°47.641 5.5 3 10 101600 79
2008-03-31 13:24 51°14.679 2°47.892 5 3 10 101600 79
2008-03-31 13:25 51°14.685 2°48.145 5.2 4 10 101600 80
2008-03-31 13:26 51°14.69 2°48.4 5.3 4 10.1 101600 79
2008-03-31 13:27 51°14.696 2°48.654 4.8 4 10.1 101600 78
2008-03-31 13:28 51°14.7 2°48.908 4.7 4 10.1 101610 78
2008-03-31 13:29 51°14.704 2°49.163 4.5 4 10.1 101600 78
2008-03-31 13:30 51°14.709 2°49.419 4 5 10.1 101600 78
2008-03-31 13:31 51°14.714 2°49.672 4.5 7 10.2 101600 78
2008-03-31 13:32 51°14.719 2°49.926 3.6 9 10.3 101610 77
2008-03-31 13:33 51°14.722 2°50.179 4.7 6 10.3 101610 76
2008-03-31 13:34 51°14.728 2°50.431 4.1 1 10.3 101610 76
2008-03-31 13:35 51°14.733 2°50.688 4 3 10.3 101610 76
2008-03-31 13:36 51°14.736 2°50.959 4.4 354 10.3 101610 76
2008-03-31 13:37 51°14.744 2°51.232 4.6 2 10.3 101610 76
2008-03-31 13:38 51°14.751 2°51.505 4.5 1 10.4 101610 76
2008-03-31 13:39 51°14.758 2°51.779 5.2 359 10.4 101610 75
2008-03-31 13:40 51°14.766 2°52.059 4.9 358 10.4 101610 75
2008-03-31 13:41 51°14.771 2°52.341 5.2 358 10.4 101610 75
2008-03-31 13:42 51°14.78 2°52.624 3.8 359 10.5 101610 74
2008-03-31 13:43 51°14.786 2°52.917 3 6 10.5 101620 74
2008-03-31 13:44 51°14.796 2°53.217 4.3 360 10.6 101620 73
2008-03-31 13:45 51°14.771 2°53.519 6.7 353 10.7 101610 73
2008-03-31 13:46 51°14.727 2°53.816 6.7 352 10.8 101620 73
2008-03-31 13:47 51°14.656 2°54.101 8.9 358 10.8 101610 72
2008-03-31 13:48 51°14.59 2°54.388 8.7 349 11.1 101610 71
2008-03-31 13:49 51°14.502 2°54.667 8.9 281 11.2 101620 70
2008-03-31 13:50 51°14.397 2°54.943 7.6 357 11.3 101610 69
2008-03-31 13:51 51°14.281 2°55.21 7.6 279 11.4 101630 69
2008-03-31 13:52 51°14.138 2°55.404 9.3 280 11.8 101620 68
2008-03-31 13:53 51°14.009 2°55.501 7.7 280 12 101630 66
2008-03-31 13:54 51°13.889 2°55.587 7.1 284 12.1 101620 66
2008-03-31 13:55 51°13.791 2°55.67 8.4 280 12.2 101630 65
2008-03-31 13:56 51°13.743 2°55.734 3.5 346 12.1 101640 64
2008-03-31 13:57 51°13.711 2°55.798 4.2 2 12.1 101640 65
2008-03-31 13:58 51°13.678 2°55.872 4.4 1 12.1 101640 65
2008-03-31 13:59 51°13.656 2°55.949 4.3 15 12.1 101650 66
2008-03-31 14:00 51°13.65 2°55.982 3.1 28 12.2 101650 66
2008-03-31 14:01 51°13.649 2°55.981 4.4 357 12.2 101660 66